createdAt,value
2019-04-11T00:02:06.696Z,68.70
2019-04-11T00:04:36.461Z,69.60
2019-04-11T00:07:06.458Z,69.20
2019-04-11T00:09:42.817Z,68.40
2019-04-11T00:12:14.529Z,68.70
2019-04-11T00:14:45.532Z,69.10
2019-04-11T00:17:15.872Z,68.70
2019-04-11T00:19:45.732Z,68.60
2019-04-11T00:22:15.505Z,68.60
2019-04-11T00:24:45.282Z,69.30
2019-04-11T00:27:17.106Z,68.70
2019-04-11T00:29:47.080Z,68.50
2019-04-11T00:32:17.187Z,68.50
2019-04-11T00:34:47.034Z,69.30
2019-04-11T00:37:16.999Z,69.60
2019-04-11T00:39:47.846Z,69.40
2019-04-11T00:42:18.692Z,68.90
2019-04-11T00:44:49.636Z,69.20
2019-04-11T00:47:20.594Z,68.40
2019-04-11T00:49:50.551Z,68.30
2019-04-11T00:52:20.603Z,68.60
2019-04-11T00:54:51.496Z,68.30
2019-04-11T00:57:21.293Z,68.40
2019-04-11T00:59:51.040Z,68.70
2019-04-11T01:02:22.954Z,68.50
2019-04-11T01:04:52.945Z,68.80
2019-04-11T01:07:22.795Z,68.80
2019-04-11T01:09:52.727Z,69.10
2019-04-11T01:12:23.397Z,68.80
2019-04-11T01:14:53.204Z,69.60
2019-04-11T01:17:23.336Z,70.40
2019-04-11T01:19:53.234Z,69.80
2019-04-11T01:22:23.072Z,69.80
2019-04-11T01:24:52.856Z,69.60
2019-04-11T01:27:23.657Z,70.00
2019-04-11T01:29:53.590Z,70.20
2019-04-11T01:32:24.453Z,71.30
2019-04-11T01:34:55.069Z,71.20
2019-04-11T01:37:26.018Z,70.70
2019-04-11T01:39:57.401Z,71.40
2019-04-11T01:42:27.173Z,71.60
2019-04-11T01:44:57.156Z,71.70
2019-04-11T01:47:35.979Z,71.40
2019-04-11T01:50:06.926Z,72.00
2019-04-11T01:52:36.679Z,72.10
2019-04-11T01:55:08.121Z,72.40
2019-04-11T01:57:38.192Z,72.50
2019-04-11T02:00:12.312Z,73.10
2019-04-11T02:02:56.937Z,73.20
2019-04-11T02:05:29.374Z,73.60
2019-04-11T02:07:59.178Z,73.70
2019-04-11T02:10:28.944Z,73.50
2019-04-11T02:12:59.655Z,74.00
2019-04-11T02:15:30.445Z,75.10
2019-04-11T02:18:01.226Z,74.80
2019-04-11T02:20:33.272Z,75.30
2019-04-11T02:23:14.994Z,75.80
2019-04-11T02:25:50.552Z,75.30
2019-04-11T02:28:20.938Z,75.40
2019-04-11T02:30:54.358Z,76.10
2019-04-11T02:33:25.803Z,76.00
2019-04-11T02:35:56.467Z,76.10
2019-04-11T02:38:28.297Z,76.30
2019-04-11T02:41:01.062Z,77.00
2019-04-11T02:43:31.978Z,77.20
2019-04-11T02:46:11.986Z,77.60
2019-04-11T02:48:35.518Z,77.70
2019-04-11T02:51:07.477Z,77.90
2019-04-11T02:53:37.052Z,78.30
2019-04-11T02:56:11.142Z,78.80
2019-04-11T02:58:40.249Z,78.90
2019-04-11T03:01:12.283Z,79.60
2019-04-11T03:03:42.237Z,79.70
2019-04-11T03:06:12.149Z,80.00
2019-04-11T03:08:43.533Z,80.50
2019-04-11T03:11:14.384Z,80.30
2019-04-11T03:13:46.533Z,81.00
2019-04-11T03:16:33.194Z,81.50
2019-04-11T03:19:05.852Z,81.90
2019-04-11T03:21:21.739Z,82.20
2019-04-11T03:23:51.906Z,82.10
2019-04-11T03:26:21.927Z,82.30
2019-04-11T03:28:54.506Z,82.40
2019-04-11T03:34:39.679Z,83.00
2019-04-11T03:39:15.631Z,84.60
2019-04-11T03:41:50.112Z,84.10
2019-04-11T03:44:13.842Z,84.80
2019-04-11T03:46:49.238Z,84.10
2019-04-11T03:49:19.487Z,85.20
2019-04-11T03:51:38.674Z,85.10
2019-04-11T03:54:09.834Z,85.60
2019-04-11T03:56:41.362Z,85.60
2019-04-11T03:59:14.861Z,85.80
2019-04-11T04:01:44.414Z,85.60
2019-04-11T04:04:15.499Z,85.90
2019-04-11T04:06:47.703Z,85.90
2019-04-11T04:09:19.184Z,86.30
2019-04-11T04:11:51.598Z,86.40
2019-04-11T04:14:28.363Z,87.20
2019-04-11T04:17:17.065Z,87.20
2019-04-11T04:19:51.843Z,87.40
2019-04-11T04:22:37.705Z,87.50
2019-04-11T04:25:08.358Z,87.30
2019-04-11T04:27:38.807Z,87.50
2019-04-11T04:30:10.267Z,87.30
2019-04-11T04:32:40.567Z,88.00
2019-04-11T04:35:14.450Z,88.30
2019-04-11T04:37:43.436Z,88.50
2019-04-11T04:40:31.553Z,88.30
2019-04-11T04:42:50.282Z,88.70
2019-04-11T04:45:19.122Z,89.20
2019-04-11T04:47:57.042Z,89.10
2019-04-11T04:50:22.319Z,88.60
2019-04-11T04:52:53.480Z,88.60
2019-04-11T04:55:24.034Z,89.30
2019-04-11T04:57:55.475Z,89.80
2019-04-11T05:00:26.039Z,90.20
2019-04-11T05:02:57.561Z,90.00
2019-04-11T05:05:29.224Z,90.30
2019-04-11T05:08:00.662Z,90.10
2019-04-11T05:10:32.602Z,90.10
2019-04-11T05:13:03.586Z,90.40
2019-04-11T05:15:34.542Z,90.40
2019-04-11T05:18:06.073Z,90.50
2019-04-11T05:20:36.403Z,90.80
2019-04-11T05:23:06.399Z,90.90
2019-04-11T05:25:36.946Z,91.20
2019-04-11T05:28:06.728Z,90.80
2019-04-11T05:30:36.505Z,90.80
2019-04-11T05:33:07.222Z,91.10
2019-04-11T05:35:36.990Z,91.10
2019-04-11T05:38:06.717Z,90.90
2019-04-11T05:40:37.658Z,90.90
2019-04-11T05:43:07.945Z,90.60
2019-04-11T05:45:38.075Z,90.60
2019-04-11T05:48:09.548Z,90.80
2019-04-11T05:50:43.330Z,90.70
2019-04-11T05:53:11.592Z,90.60
2019-04-11T05:55:42.131Z,90.70
2019-04-11T05:58:14.405Z,90.40
2019-04-11T06:00:48.984Z,90.70
2019-04-11T06:03:19.623Z,90.40
2019-04-11T06:05:51.975Z,90.40
2019-04-11T06:08:26.895Z,90.30
2019-04-11T06:11:02.888Z,90.50
2019-04-11T06:13:42.860Z,90.60
2019-04-11T06:16:14.636Z,90.80
2019-04-11T06:19:01.246Z,90.70
2019-04-11T06:21:38.593Z,90.30
2019-04-11T06:24:14.077Z,90.40
2019-04-11T06:27:03.956Z,90.60
2019-04-11T06:29:38.949Z,90.50
2019-04-11T06:32:23.495Z,90.70
2019-04-11T06:34:55.874Z,90.20
2019-04-11T06:37:36.207Z,90.40
2019-04-11T06:40:27.706Z,90.40
2019-04-11T06:43:14.481Z,90.40
2019-04-11T06:45:46.100Z,90.40
2019-04-11T06:48:17.873Z,90.30
2019-04-11T06:50:51.242Z,90.40
2019-04-11T06:53:22.301Z,90.60
2019-04-11T06:55:57.319Z,90.60
2019-04-11T06:58:29.637Z,90.30
2019-04-11T07:01:01.349Z,90.60
2019-04-11T07:03:33.786Z,90.30
2019-04-11T07:06:05.381Z,90.40
2019-04-11T07:08:40.588Z,90.30
2019-04-11T07:11:12.036Z,90.20
2019-04-11T07:13:49.787Z,90.30
2019-04-11T07:16:20.013Z,90.60
2019-04-11T07:18:54.841Z,90.30
2019-04-11T07:21:27.566Z,90.60
2019-04-11T07:24:16.093Z,90.50
2019-04-11T07:26:47.923Z,90.60
2019-04-11T07:29:22.141Z,90.70
2019-04-11T07:32:09.418Z,90.90
2019-04-11T07:34:57.389Z,91.00
2019-04-11T07:37:34.147Z,91.10
2019-04-11T07:40:13.010Z,91.80
2019-04-11T07:42:52.807Z,92.10
2019-04-11T07:45:32.850Z,92.30
2019-04-11T07:48:22.744Z,92.90
2019-04-11T07:50:54.136Z,93.10
2019-04-11T07:53:26.235Z,93.70
2019-04-11T07:55:56.000Z,93.60
2019-04-11T07:58:28.527Z,93.70
2019-04-11T08:01:18.976Z,93.40
2019-04-11T08:03:57.918Z,93.40
2019-04-11T08:06:33.091Z,93.20
2019-04-11T08:09:22.144Z,93.40
2019-04-11T08:11:53.508Z,93.70
2019-04-11T08:14:28.597Z,93.60
2019-04-11T08:17:00.178Z,93.40
2019-04-11T08:19:49.000Z,93.90
2019-04-11T08:22:35.474Z,93.90
2019-04-11T08:25:26.352Z,93.70
2019-04-11T08:28:02.178Z,93.80
2019-04-11T08:30:30.872Z,93.40
2019-04-11T08:33:07.440Z,93.40
2019-04-11T08:35:38.145Z,93.70
2019-04-11T08:38:16.170Z,93.50
2019-04-11T08:40:58.813Z,93.70
2019-04-11T08:43:33.045Z,93.40
2019-04-11T08:46:10.927Z,93.20
2019-04-11T08:49:01.530Z,92.60
2019-04-11T08:51:33.637Z,92.90
2019-04-11T08:54:07.107Z,92.80
2019-04-11T08:56:39.072Z,92.60
2019-04-11T08:59:33.453Z,92.40
2019-04-11T09:02:05.236Z,92.40
2019-04-11T09:04:46.252Z,92.40
2019-04-11T09:07:17.728Z,92.40
2019-04-11T09:10:05.722Z,92.10
2019-04-11T09:12:38.341Z,92.50
2019-04-11T09:15:26.657Z,92.60
2019-04-11T09:18:04.270Z,92.70
2019-04-11T09:20:48.702Z,92.70
2019-04-11T09:23:19.547Z,92.30
2019-04-11T09:26:01.561Z,92.20
2019-04-11T09:28:33.460Z,92.70
2019-04-11T09:31:21.216Z,92.60
2019-04-11T09:33:59.528Z,93.20
2019-04-11T09:36:36.966Z,93.70
2019-04-11T09:39:10.772Z,94.10
2019-04-11T09:41:57.593Z,94.50
2019-04-11T09:44:29.097Z,95.30
2019-04-11T09:47:16.972Z,95.40
2019-04-11T09:49:51.574Z,95.50
2019-04-11T09:52:35.046Z,95.00
2019-04-11T09:55:19.187Z,95.60
2019-04-11T09:57:50.647Z,95.50
2019-04-11T10:00:22.884Z,96.20
2019-04-11T10:02:54.264Z,96.00
2019-04-11T10:05:34.652Z,96.30
2019-04-11T10:08:15.024Z,97.00
2019-04-11T10:10:53.260Z,97.40
2019-04-11T10:13:35.591Z,96.30
2019-04-11T10:16:07.561Z,96.80
2019-04-11T10:18:40.747Z,95.80
2019-04-11T10:21:12.969Z,96.30
2019-04-11T10:23:45.136Z,95.80
2019-04-11T10:26:15.943Z,96.00
2019-04-11T10:28:51.592Z,95.10
2019-04-11T10:31:22.354Z,94.50
2019-04-11T10:33:59.794Z,94.60
2019-04-11T10:36:31.540Z,94.20
2019-04-11T10:39:19.793Z,93.80
2019-04-11T10:42:08.526Z,93.40
2019-04-11T10:44:46.097Z,93.20
2019-04-11T10:47:17.578Z,92.70
2019-04-11T10:49:48.870Z,91.70
2019-04-11T10:52:30.834Z,91.40
2019-04-11T10:55:15.558Z,91.30
2019-04-11T10:57:52.704Z,91.10
2019-04-11T11:00:24.134Z,90.80
2019-04-11T11:02:58.390Z,90.60
2019-04-11T11:05:40.125Z,90.00
2019-04-11T11:08:11.526Z,89.90
2019-04-11T11:10:41.863Z,90.20
2019-04-11T11:13:16.320Z,87.80
2019-04-11T11:15:47.645Z,87.80
2019-04-11T11:18:54.150Z,87.50
2019-04-11T11:21:07.260Z,85.50
2019-04-11T11:23:54.725Z,86.00
2019-04-11T11:26:26.046Z,85.90
2019-04-11T11:28:57.485Z,86.90
2019-04-11T11:31:38.592Z,85.50
2019-04-11T11:34:15.682Z,85.20
2019-04-11T11:36:47.895Z,85.40
2019-04-11T11:39:37.449Z,85.60
2019-04-11T11:42:26.144Z,84.80
2019-04-11T11:45:15.878Z,84.50
2019-04-11T11:47:47.213Z,83.50
2019-04-11T11:50:23.110Z,83.90
2019-04-11T11:53:13.225Z,83.50
2019-04-11T11:55:43.904Z,82.50
2019-04-11T11:58:31.704Z,83.20
2019-04-11T12:01:05.835Z,83.10
2019-04-11T12:03:42.429Z,81.60
2019-04-11T12:06:12.651Z,81.00
2019-04-11T12:09:00.387Z,81.40
2019-04-11T12:11:32.401Z,82.50
2019-04-11T12:14:09.743Z,81.40
2019-04-11T12:16:58.705Z,81.10
2019-04-11T12:19:27.077Z,80.30
2019-04-11T12:21:58.300Z,81.00
2019-04-11T12:24:34.466Z,80.40
2019-04-11T12:27:11.829Z,80.20
2019-04-11T12:29:56.141Z,78.60
2019-04-11T12:32:30.532Z,78.10
2019-04-11T12:35:24.647Z,79.20
2019-04-11T12:37:55.969Z,77.70
2019-04-11T12:40:43.722Z,79.00
2019-04-11T12:43:14.484Z,78.50
2019-04-11T12:46:02.541Z,78.00
2019-04-11T12:48:33.872Z,77.80
2019-04-11T12:51:05.187Z,77.60
2019-04-11T12:53:34.937Z,76.70
2019-04-11T12:56:09.201Z,76.30
2019-04-11T12:58:43.547Z,76.60
2019-04-11T13:01:27.043Z,78.00
2019-04-11T13:04:10.245Z,77.50
2019-04-11T13:06:53.762Z,76.80
2019-04-11T13:09:43.824Z,77.10
2019-04-11T13:12:25.176Z,76.20
2019-04-11T13:14:56.505Z,77.70
2019-04-11T13:17:27.821Z,77.90
2019-04-11T13:20:04.792Z,77.80
2019-04-11T13:22:33.497Z,77.10
2019-04-11T13:25:11.051Z,77.30
2019-04-11T13:27:42.368Z,78.60
2019-04-11T13:30:23.166Z,79.00
2019-04-11T13:32:54.440Z,79.30
2019-04-11T13:35:28.242Z,78.10
2019-04-11T13:38:09.559Z,77.90
2019-04-11T13:40:41.190Z,78.20
2019-04-11T13:43:15.217Z,78.50
2019-04-11T13:45:58.565Z,79.20
2019-04-11T13:48:48.116Z,79.50
2019-04-11T13:51:31.510Z,79.80
2019-04-11T13:54:19.209Z,79.10
2019-04-11T13:56:51.415Z,80.40
2019-04-11T13:59:28.492Z,79.30
2019-04-11T14:02:08.872Z,80.00
2019-04-11T14:04:57.893Z,78.60
2019-04-11T14:07:29.252Z,79.70
2019-04-11T14:10:01.575Z,79.60
2019-04-11T14:12:33.291Z,79.40
2019-04-11T14:15:11.881Z,79.90
2019-04-11T14:17:46.249Z,77.70
2019-04-11T14:20:29.485Z,76.50
2019-04-11T14:23:03.035Z,78.00
2019-04-11T14:25:34.948Z,78.30
2019-04-11T14:28:08.225Z,78.60
2019-04-11T14:30:56.176Z,78.00
2019-04-11T14:33:27.862Z,78.10
2019-04-11T14:36:02.254Z,77.80
2019-04-11T14:38:32.837Z,78.40
2019-04-11T14:41:19.340Z,78.10
2019-04-11T14:43:59.492Z,78.30
2019-04-11T14:46:49.223Z,78.30
2019-04-11T14:49:19.014Z,78.10
2019-04-11T14:52:02.423Z,78.20
2019-04-11T14:54:36.769Z,77.40
2019-04-11T14:57:08.093Z,77.70
2019-04-11T14:59:45.273Z,77.10
2019-04-11T15:02:25.746Z,77.10
2019-04-11T15:05:06.310Z,78.40
2019-04-11T15:07:38.616Z,78.70
2019-04-11T15:10:26.531Z,77.90
2019-04-11T15:12:57.388Z,76.80
2019-04-11T15:15:34.674Z,77.80
2019-04-11T15:18:05.123Z,77.90
2019-04-11T15:20:36.549Z,78.10
2019-04-11T15:23:24.449Z,78.60
2019-04-11T15:26:11.241Z,79.30
2019-04-11T15:28:45.261Z,77.70
2019-04-11T15:31:19.034Z,79.10
2019-04-11T15:33:56.193Z,79.10
2019-04-11T15:36:28.471Z,78.80
2019-04-11T15:39:05.748Z,77.80
2019-04-11T15:41:35.737Z,78.50
2019-04-11T15:44:14.008Z,79.20
2019-04-11T15:46:47.621Z,78.50
2019-04-11T15:49:33.809Z,78.80
2019-04-11T15:52:06.817Z,78.70
2019-04-11T15:54:56.331Z,79.40
2019-04-11T15:57:27.680Z,78.70
2019-04-11T15:59:58.981Z,79.10
2019-04-11T16:02:48.278Z,79.70
2019-04-11T16:05:36.084Z,79.90
2019-04-11T16:08:19.574Z,78.60
2019-04-11T16:11:05.896Z,79.80
2019-04-11T16:13:37.226Z,80.80
2019-04-11T16:16:11.891Z,82.60
2019-04-11T16:18:47.740Z,82.30
2019-04-11T16:21:30.935Z,82.80
2019-04-11T16:24:05.125Z,83.60
2019-04-11T16:26:36.408Z,83.90
2019-04-11T16:29:16.737Z,85.10
2019-04-11T16:31:47.166Z,84.50
2019-04-11T16:34:18.558Z,84.50
2019-04-11T16:36:49.850Z,82.80
2019-04-11T16:39:33.206Z,83.00
2019-04-11T16:42:04.514Z,84.00
2019-04-11T16:44:54.847Z,83.20
2019-04-11T16:47:25.986Z,83.50
2019-04-11T16:49:56.987Z,83.00
2019-04-11T16:52:28.046Z,83.30
2019-04-11T16:54:57.918Z,83.60
2019-04-11T16:57:27.716Z,83.50
2019-04-11T16:59:57.513Z,83.70
2019-04-11T17:02:29.068Z,83.70
2019-04-11T17:04:58.631Z,83.60
2019-04-11T17:07:32.910Z,84.10
2019-04-11T17:10:04.452Z,84.60
2019-04-11T17:12:34.199Z,84.80
2019-04-11T17:15:04.783Z,85.20
2019-04-11T17:17:35.485Z,84.50
2019-04-11T17:20:06.701Z,84.50
2019-04-11T17:22:37.547Z,83.90
2019-04-11T17:25:07.299Z,84.40
2019-04-11T17:27:37.046Z,85.40
2019-04-11T17:30:07.884Z,85.20
2019-04-11T17:32:37.643Z,85.20
2019-04-11T17:35:08.525Z,85.10
2019-04-11T17:37:38.280Z,86.40
2019-04-11T17:40:08.088Z,86.60
2019-04-11T17:42:37.812Z,86.50
2019-04-11T17:45:07.569Z,87.50
2019-04-11T17:47:37.872Z,86.00
2019-04-11T17:50:07.992Z,87.40
2019-04-11T17:52:37.690Z,86.90
2019-04-11T17:55:07.448Z,85.60
2019-04-11T17:57:37.173Z,86.30
2019-04-11T18:00:08.905Z,88.10
2019-04-11T18:02:39.042Z,88.80
2019-04-11T18:05:10.340Z,89.50
2019-04-11T18:07:41.535Z,89.50
2019-04-11T18:10:11.656Z,90.00
2019-04-11T18:12:41.405Z,89.60
2019-04-11T18:15:11.360Z,90.00
2019-04-11T18:17:41.219Z,90.30
2019-04-11T18:20:11.581Z,90.30
2019-04-11T18:22:43.810Z,90.30
2019-04-11T18:25:14.336Z,90.50
2019-04-11T18:27:44.101Z,90.40
2019-04-11T18:30:14.468Z,90.60
2019-04-11T18:32:44.209Z,90.40
2019-04-11T18:35:13.957Z,90.60
2019-04-11T18:37:43.694Z,90.90
2019-04-11T18:40:14.690Z,91.10
2019-04-11T18:42:44.435Z,91.40
2019-04-11T18:45:15.025Z,91.60
2019-04-11T18:47:45.664Z,91.70
2019-04-11T18:50:17.188Z,91.70
2019-04-11T18:52:46.947Z,91.90
2019-04-11T18:55:16.711Z,92.00
2019-04-11T18:57:47.708Z,92.30
2019-04-11T19:00:20.154Z,92.30
2019-04-11T19:02:49.938Z,92.20
2019-04-11T19:05:28.542Z,92.50
2019-04-11T19:07:52.049Z,92.60
2019-04-11T19:10:22.033Z,92.70
2019-04-11T19:12:52.125Z,92.80
2019-04-11T19:15:21.876Z,93.00
2019-04-11T19:18:05.344Z,93.10
2019-04-11T19:20:23.164Z,93.10
2019-04-11T19:22:52.921Z,93.10
2019-04-11T19:25:22.686Z,92.90
2019-04-11T19:27:54.320Z,93.20
2019-04-11T19:30:26.451Z,93.30
2019-04-11T19:33:15.807Z,93.50
2019-04-11T19:35:45.579Z,93.50
2019-04-11T19:38:29.360Z,93.60
2019-04-11T19:40:59.152Z,93.70
2019-04-11T19:43:28.896Z,93.80
2019-04-11T19:45:58.837Z,93.70
2019-04-11T19:48:28.642Z,93.50
2019-04-11T19:50:59.012Z,93.40
2019-04-11T19:53:32.811Z,93.60
2019-04-11T19:56:08.277Z,93.50
2019-04-11T19:58:39.341Z,93.50
2019-04-11T20:01:09.077Z,93.30
2019-04-11T20:03:38.855Z,93.40
2019-04-11T20:06:08.600Z,93.50
2019-04-11T20:08:38.387Z,93.40
2019-04-11T20:11:08.266Z,93.40
2019-04-11T20:13:38.031Z,93.70
2019-04-11T20:16:12.110Z,93.60
2019-04-11T20:18:50.321Z,93.70
2019-04-11T20:21:10.942Z,93.90
2019-04-11T20:23:41.896Z,93.80
2019-04-11T20:26:12.246Z,94.00
2019-04-11T20:28:41.977Z,94.10
2019-04-11T20:31:11.719Z,94.30
2019-04-11T20:33:41.495Z,94.30
2019-04-11T20:36:11.476Z,94.20
2019-04-11T20:38:41.343Z,94.00
2019-04-11T20:41:11.101Z,94.20
2019-04-11T20:43:43.046Z,94.30
2019-04-11T20:46:12.242Z,94.30
2019-04-11T20:48:42.157Z,94.30
2019-04-11T20:51:11.900Z,94.40
2019-04-11T20:53:41.657Z,94.40
2019-04-11T20:56:23.371Z,94.50
2019-04-11T20:58:43.880Z,94.50
2019-04-11T21:01:13.640Z,94.50
2019-04-11T21:03:43.381Z,94.50
2019-04-11T21:06:13.165Z,94.40
2019-04-11T21:08:42.915Z,94.40
2019-04-11T21:11:12.661Z,94.60
2019-04-11T21:13:42.430Z,94.70
2019-04-11T21:16:12.178Z,94.70
2019-04-11T21:18:41.949Z,94.70
2019-04-11T21:21:11.698Z,94.60
2019-04-11T21:23:42.565Z,94.60
2019-04-11T21:26:12.319Z,94.50
2019-04-11T21:28:42.045Z,94.60
2019-04-11T21:31:11.813Z,94.50
2019-04-11T21:33:41.540Z,94.40
2019-04-11T21:36:11.298Z,94.80
2019-04-11T21:38:41.055Z,94.70
2019-04-11T21:41:10.799Z,94.70
2019-04-11T21:43:40.536Z,94.60
2019-04-11T21:46:10.286Z,94.60
2019-04-11T21:48:40.032Z,94.70
2019-04-11T21:51:11.337Z,94.20
2019-04-11T21:53:44.292Z,93.90
2019-04-11T21:56:12.667Z,94.00
2019-04-11T21:58:42.471Z,93.90
2019-04-11T22:01:14.591Z,94.10
2019-04-11T22:03:46.526Z,94.30
2019-04-11T22:06:16.272Z,94.60
2019-04-11T22:08:46.651Z,94.70
2019-04-11T22:11:16.392Z,94.90
2019-04-11T22:13:46.465Z,94.80
2019-04-11T22:16:16.236Z,94.90
2019-04-11T22:18:45.980Z,95.00
2019-04-11T22:21:16.501Z,95.10
2019-04-11T22:23:49.073Z,95.20
2019-04-11T22:26:17.628Z,95.10
2019-04-11T22:28:47.387Z,95.00
2019-04-11T22:31:17.117Z,94.90
2019-04-11T22:33:48.505Z,94.80
2019-04-11T22:36:18.512Z,95.10
2019-04-11T22:38:48.275Z,95.00
2019-04-11T22:41:18.028Z,95.00
2019-04-11T22:43:47.768Z,95.10
2019-04-11T22:46:20.846Z,95.10
2019-04-11T22:48:48.886Z,95.20
2019-04-11T22:51:18.928Z,94.90
2019-04-11T22:53:59.737Z,95.00
2019-04-11T22:56:20.063Z,95.10
2019-04-11T22:58:49.813Z,94.80
2019-04-11T23:01:19.604Z,94.80
2019-04-11T23:04:02.072Z,94.90
2019-04-11T23:06:31.896Z,94.70
2019-04-11T23:09:02.576Z,94.20
2019-04-11T23:11:33.885Z,94.00
2019-04-11T23:14:03.636Z,93.40
2019-04-11T23:16:33.403Z,93.10
2019-04-11T23:19:03.158Z,92.70
2019-04-11T23:21:34.014Z,93.60
2019-04-11T23:24:11.745Z,93.40
2019-04-11T23:26:36.012Z,93.70
2019-04-11T23:29:05.793Z,93.50
2019-04-11T23:31:35.532Z,92.90
2019-04-11T23:34:05.293Z,92.10
2019-04-11T23:36:35.048Z,92.20
2019-04-11T23:39:06.672Z,92.60
2019-04-11T23:41:36.416Z,93.10
2019-04-11T23:44:06.154Z,93.50
2019-04-11T23:46:35.929Z,93.40
2019-04-11T23:49:05.657Z,93.70
2019-04-11T23:51:35.750Z,92.40
2019-04-11T23:54:05.501Z,93.70
2019-04-11T23:56:36.261Z,94.10
2019-04-11T23:59:05.997Z,94.00
